createdAt,value
2024-01-16T00:00:55.371Z,-0.68
2024-01-16T00:03:21.828Z,-0.69
2024-01-16T00:05:48.269Z,-0.63
2024-01-16T00:08:14.701Z,-0.60
2024-01-16T00:10:41.176Z,-0.63
2024-01-16T00:13:07.556Z,-0.61
2024-01-16T00:15:34.020Z,-0.57
2024-01-16T00:18:00.522Z,-0.64
2024-01-16T00:20:27.133Z,-0.65
2024-01-16T00:22:53.505Z,-0.57
2024-01-16T00:25:21.089Z,-0.54
2024-01-16T00:27:47.532Z,-0.64
2024-01-16T00:30:14.278Z,-0.59
2024-01-16T00:32:40.722Z,-0.60
2024-01-16T00:35:07.484Z,-0.54
2024-01-16T00:37:33.904Z,-0.53
2024-01-16T00:40:00.407Z,-0.58
2024-01-16T00:42:26.947Z,-0.59
2024-01-16T00:44:53.421Z,-0.62
2024-01-16T00:47:19.955Z,-0.61
2024-01-16T00:49:46.370Z,-0.66
2024-01-16T00:52:12.792Z,-0.71
2024-01-16T00:54:40.426Z,-0.70
2024-01-16T00:57:07.166Z,-0.78
2024-01-16T00:59:33.849Z,-0.73
2024-01-16T01:02:00.356Z,-0.83
2024-01-16T01:07:20.178Z,-0.86
2024-01-16T01:09:46.563Z,-0.98
2024-01-16T01:12:12.960Z,-0.90
2024-01-16T01:14:39.473Z,-0.92
2024-01-16T01:17:06.195Z,-1.01
2024-01-16T01:19:32.629Z,-1.04
2024-01-16T01:21:59.007Z,-1.10
2024-01-16T01:24:25.364Z,-1.07
2024-01-16T01:26:51.743Z,-1.00
2024-01-16T01:29:18.499Z,-1.02
2024-01-16T01:31:50.941Z,-1.03
2024-01-16T01:34:17.503Z,-1.13
2024-01-16T01:36:44.504Z,-1.02
2024-01-16T01:39:12.137Z,-1.02
2024-01-16T01:41:39.048Z,-1.04
2024-01-16T01:44:06.803Z,-1.05
2024-01-16T01:46:35.962Z,-0.98
2024-01-16T01:49:03.914Z,-1.02
2024-01-16T01:51:30.878Z,-1.10
2024-01-16T01:53:59.625Z,-1.10
2024-01-16T01:56:26.124Z,-1.10
2024-01-16T01:58:57.138Z,-1.05
2024-01-16T02:01:25.934Z,-1.10
2024-01-16T02:03:53.668Z,-1.15
2024-01-16T02:06:20.193Z,-1.18
2024-01-16T02:08:47.028Z,-1.23
2024-01-16T02:11:13.670Z,-1.24
2024-01-16T02:13:40.176Z,-1.29
2024-01-16T02:16:07.073Z,-1.28
2024-01-16T02:18:33.647Z,-1.34
2024-01-16T02:21:07.039Z,-1.44
2024-01-16T02:23:34.360Z,-1.30
2024-01-16T02:26:01.915Z,-1.30
2024-01-16T02:28:28.993Z,-1.35
2024-01-16T02:30:55.419Z,-1.30
2024-01-16T02:33:21.883Z,-1.32
2024-01-16T02:35:48.505Z,-1.31
2024-01-16T02:38:14.918Z,-1.36
2024-01-16T02:40:41.555Z,-1.27
2024-01-16T02:43:08.240Z,-1.20
2024-01-16T02:45:35.201Z,-1.31
2024-01-16T02:48:02.626Z,-1.32
2024-01-16T02:50:29.354Z,-1.29
2024-01-16T02:52:55.935Z,-1.31
2024-01-16T02:55:22.272Z,-1.20
2024-01-16T02:57:48.733Z,-1.18
2024-01-16T03:00:15.776Z,-1.15
2024-01-16T03:02:42.355Z,-1.20
2024-01-16T03:05:09.129Z,-1.13
2024-01-16T03:07:35.837Z,-1.07
2024-01-16T03:10:02.386Z,-1.08
2024-01-16T03:12:28.764Z,-1.09
2024-01-16T03:14:55.207Z,-1.07
2024-01-16T03:17:21.618Z,-1.06
2024-01-16T03:19:48.072Z,-1.09
2024-01-16T03:22:14.463Z,-1.08
2024-01-16T03:24:41.613Z,-1.07
2024-01-16T03:27:08.022Z,-1.07
2024-01-16T03:29:35.001Z,-1.10
2024-01-16T03:32:01.981Z,-1.10
2024-01-16T03:34:28.484Z,-1.06
2024-01-16T03:36:55.362Z,-1.06
2024-01-16T03:39:21.785Z,-1.07
2024-01-16T03:41:48.264Z,-1.09
2024-01-16T03:44:14.644Z,-1.05
2024-01-16T03:46:41.063Z,-1.07
2024-01-16T03:49:07.496Z,-1.05
2024-01-16T03:51:34.166Z,-1.06
2024-01-16T03:54:00.595Z,-1.13
2024-01-16T03:56:26.992Z,-1.12
2024-01-16T03:58:53.621Z,-1.15
2024-01-16T04:01:30.996Z,-1.16
2024-01-16T04:03:57.375Z,-1.25
2024-01-16T04:06:23.943Z,-1.18
2024-01-16T04:08:50.434Z,-1.22
2024-01-16T04:11:16.988Z,-1.21
2024-01-16T04:13:43.648Z,-0.98
2024-01-16T04:16:10.267Z,-1.10
2024-01-16T04:18:38.831Z,-1.14
2024-01-16T04:21:05.493Z,-1.11
2024-01-16T04:23:31.880Z,-1.16
2024-01-16T04:25:58.431Z,-1.15
2024-01-16T04:28:25.017Z,-1.18
2024-01-16T04:30:51.906Z,-1.22
2024-01-16T04:33:19.031Z,-1.27
2024-01-16T04:35:46.047Z,-1.26
2024-01-16T04:38:12.674Z,-1.19
2024-01-16T04:40:39.098Z,-1.18
2024-01-16T04:43:06.377Z,-1.22
2024-01-16T04:45:32.761Z,-1.23
2024-01-16T04:47:59.178Z,-1.25
2024-01-16T04:50:32.446Z,-1.27
2024-01-16T04:53:02.717Z,-1.26
2024-01-16T04:55:30.493Z,-1.25
2024-01-16T04:57:57.952Z,-1.24
2024-01-16T05:00:24.512Z,-1.28
2024-01-16T05:02:50.988Z,-1.33
2024-01-16T05:05:17.768Z,-1.39
2024-01-16T05:07:44.438Z,-1.42
2024-01-16T05:10:13.756Z,-1.45
2024-01-16T05:12:43.530Z,-1.47
2024-01-16T05:15:12.415Z,-1.53
2024-01-16T05:17:41.596Z,-1.54
2024-01-16T05:20:09.337Z,-1.63
2024-01-16T05:22:35.738Z,-1.65
2024-01-16T05:25:03.478Z,-1.67
2024-01-16T05:27:29.848Z,-1.65
2024-01-16T05:29:56.269Z,-1.66
2024-01-16T05:32:22.751Z,-1.64
2024-01-16T05:34:49.236Z,-1.71
2024-01-16T05:37:15.721Z,-1.72
2024-01-16T05:39:42.249Z,-1.72
2024-01-16T05:42:08.754Z,-1.74
2024-01-16T05:44:35.267Z,-1.76
2024-01-16T05:47:01.822Z,-1.76
2024-01-16T05:49:28.304Z,-1.78
2024-01-16T05:51:54.731Z,-1.82
2024-01-16T05:54:21.107Z,-1.81
2024-01-16T05:56:47.617Z,-1.84
2024-01-16T05:59:14.231Z,-1.80
2024-01-16T06:01:40.679Z,-1.84
2024-01-16T06:04:07.134Z,-1.81
2024-01-16T06:06:34.255Z,-1.80
2024-01-16T06:09:05.869Z,-1.72
2024-01-16T06:11:39.341Z,-1.78
2024-01-16T06:14:05.882Z,-1.83
2024-01-16T06:16:32.440Z,-1.81
2024-01-16T06:18:59.049Z,-1.78
2024-01-16T06:21:25.618Z,-1.81
2024-01-16T06:23:52.304Z,-1.66
2024-01-16T06:26:18.834Z,-1.73
2024-01-16T06:28:45.552Z,-1.72
2024-01-16T06:31:12.981Z,-1.75
2024-01-16T06:33:39.779Z,-1.83
2024-01-16T06:36:06.881Z,-1.90
2024-01-16T06:38:33.381Z,-2.03
2024-01-16T06:40:59.887Z,-2.22
2024-01-16T06:43:26.358Z,-2.24
2024-01-16T06:45:52.879Z,-2.31
2024-01-16T06:48:19.555Z,-2.39
2024-01-16T06:50:46.426Z,-2.51
2024-01-16T06:53:16.751Z,-2.43
2024-01-16T06:55:43.786Z,-2.44
2024-01-16T06:58:11.109Z,-2.47
2024-01-16T07:00:37.585Z,-2.46
2024-01-16T07:03:04.371Z,-2.48
2024-01-16T07:05:30.867Z,-2.44
2024-01-16T07:07:59.422Z,-2.47
2024-01-16T07:10:26.045Z,-2.45
2024-01-16T07:12:52.763Z,-2.52
2024-01-16T07:15:19.933Z,-2.52
2024-01-16T07:17:46.591Z,-2.56
2024-01-16T07:20:13.279Z,-2.67
2024-01-16T07:22:42.406Z,-2.66
2024-01-16T07:25:09.133Z,-2.70
2024-01-16T07:27:35.743Z,-2.75
2024-01-16T07:30:02.720Z,-2.79
2024-01-16T07:32:31.404Z,-2.76
2024-01-16T07:34:58.807Z,-2.69
2024-01-16T07:37:25.212Z,-2.62
2024-01-16T07:39:51.948Z,-2.63
2024-01-16T07:42:18.293Z,-2.65
2024-01-16T07:44:45.026Z,-2.63
2024-01-16T07:47:11.526Z,-2.67
2024-01-16T07:49:37.967Z,-2.65
2024-01-16T07:52:04.740Z,-2.69
2024-01-16T07:54:32.065Z,-2.73
2024-01-16T07:56:58.866Z,-2.76
2024-01-16T07:59:25.472Z,-2.75
2024-01-16T08:01:51.955Z,-2.68
2024-01-16T08:04:18.444Z,-2.61
2024-01-16T08:06:46.467Z,-2.58
2024-01-16T08:09:13.645Z,-2.52
2024-01-16T08:11:40.699Z,-2.52
2024-01-16T08:14:07.386Z,-2.51
2024-01-16T08:16:33.981Z,-2.49
2024-01-16T08:19:00.758Z,-2.53
2024-01-16T08:21:27.300Z,-2.46
2024-01-16T08:23:53.779Z,-2.48
2024-01-16T08:26:20.347Z,-2.44
2024-01-16T08:28:46.984Z,-2.47
2024-01-16T08:31:13.467Z,-2.54
2024-01-16T08:33:45.873Z,-2.42
2024-01-16T08:36:14.419Z,-2.40
2024-01-16T08:38:41.878Z,-2.37
2024-01-16T08:41:08.436Z,-2.36
2024-01-16T08:43:34.868Z,-2.33
2024-01-16T08:46:01.355Z,-2.26
2024-01-16T08:48:28.090Z,-2.25
2024-01-16T08:50:58.083Z,-2.21
2024-01-16T08:53:25.052Z,-2.13
2024-01-16T08:55:51.690Z,-2.11
2024-01-16T08:58:18.402Z,-2.23
2024-01-16T09:00:44.899Z,-2.10
2024-01-16T09:03:12.886Z,-2.02
2024-01-16T09:05:40.481Z,-1.98
2024-01-16T09:08:10.997Z,-1.88
2024-01-16T09:10:39.064Z,-1.86
2024-01-16T09:13:05.483Z,-1.85
2024-01-16T09:15:31.918Z,-1.81
2024-01-16T09:18:04.676Z,-1.76
2024-01-16T09:20:31.237Z,-1.71
2024-01-16T09:22:57.650Z,-1.61
2024-01-16T09:25:28.486Z,-1.61
2024-01-16T09:27:54.966Z,-1.62
2024-01-16T09:30:23.542Z,-1.53
2024-01-16T09:32:50.433Z,-1.49
2024-01-16T09:35:16.982Z,-1.45
2024-01-16T09:37:43.370Z,-1.39
2024-01-16T09:40:11.193Z,-1.36
2024-01-16T09:42:37.719Z,-1.34
2024-01-16T09:45:04.923Z,-1.29
2024-01-16T09:47:35.240Z,-1.27
2024-01-16T09:50:03.945Z,-1.19
2024-01-16T09:52:30.554Z,-1.15
2024-01-16T09:54:57.212Z,-1.15
2024-01-16T09:57:27.172Z,-1.06
2024-01-16T09:59:54.068Z,-1.01
2024-01-16T10:02:22.044Z,-0.98
2024-01-16T10:04:48.930Z,-1.00
2024-01-16T10:07:16.951Z,-0.89
2024-01-16T10:09:44.827Z,-0.85
2024-01-16T10:12:11.411Z,-0.78
2024-01-16T10:14:39.876Z,-0.77
2024-01-16T10:17:07.278Z,-0.71
2024-01-16T10:19:43.166Z,-0.66
2024-01-16T10:22:24.301Z,-0.49
2024-01-16T10:25:20.889Z,-0.41
2024-01-16T10:27:47.288Z,-0.39
2024-01-16T10:30:14.646Z,-0.31
2024-01-16T10:32:43.371Z,-0.17
2024-01-16T10:35:12.841Z,-0.16
2024-01-16T10:37:48.647Z,0.04
2024-01-16T10:40:27.648Z,0.05
2024-01-16T10:43:01.910Z,-0.12
2024-01-16T10:45:28.800Z,-0.10
2024-01-16T10:48:17.083Z,-0.14
2024-01-16T10:50:45.043Z,-0.13
2024-01-16T10:53:13.738Z,-0.06
2024-01-16T10:55:53.074Z,0.08
2024-01-16T10:58:26.584Z,0.05
2024-01-16T11:00:55.047Z,0.14
2024-01-16T11:03:41.380Z,0.16
2024-01-16T11:06:11.148Z,0.12
2024-01-16T11:08:38.695Z,0.21
2024-01-16T11:11:06.016Z,0.40
2024-01-16T11:13:36.867Z,0.46
2024-01-16T11:16:08.522Z,0.39
2024-01-16T11:18:36.115Z,0.41
2024-01-16T11:21:09.037Z,0.57
2024-01-16T11:23:38.315Z,0.61
2024-01-16T11:26:34.619Z,1.51
2024-01-16T11:29:21.898Z,1.69
2024-01-16T11:31:48.270Z,1.86
2024-01-16T11:34:14.803Z,2.02
2024-01-16T11:36:57.144Z,3.14
2024-01-16T11:39:28.021Z,3.88
2024-01-16T11:41:59.764Z,3.16
2024-01-16T11:44:38.826Z,3.25
2024-01-16T11:47:06.406Z,3.76
2024-01-16T11:49:33.111Z,3.91
2024-01-16T11:52:00.227Z,4.14
2024-01-16T11:54:26.850Z,3.73
2024-01-16T11:57:27.260Z,3.67
2024-01-16T12:00:13.409Z,3.21
2024-01-16T12:02:54.850Z,2.47
2024-01-16T12:05:22.095Z,2.00
2024-01-16T12:07:53.384Z,2.26
2024-01-16T12:10:21.686Z,3.72
2024-01-16T12:12:49.167Z,4.77
2024-01-16T12:15:19.735Z,4.67
2024-01-16T12:18:01.264Z,4.93
2024-01-16T12:20:32.915Z,5.14
2024-01-16T12:23:01.410Z,4.86
2024-01-16T12:26:00.690Z,4.28
2024-01-16T12:30:52.808Z,4.57
2024-01-16T12:33:23.446Z,4.20
2024-01-16T12:35:50.885Z,4.48
2024-01-16T12:38:18.307Z,3.56
2024-01-16T12:40:48.911Z,3.34
2024-01-16T12:43:18.004Z,3.11
2024-01-16T12:45:45.765Z,3.23
2024-01-16T12:48:13.079Z,2.85
2024-01-16T12:50:39.706Z,2.61
2024-01-16T12:53:07.909Z,2.45
2024-01-16T12:55:41.275Z,2.33
2024-01-16T12:58:14.468Z,2.36
2024-01-16T13:00:41.390Z,2.41
2024-01-16T13:03:08.023Z,2.22
2024-01-16T13:05:35.414Z,2.05
2024-01-16T13:08:06.056Z,1.97
2024-01-16T13:10:33.048Z,1.79
2024-01-16T13:13:35.466Z,1.98
2024-01-16T13:16:03.500Z,1.92
2024-01-16T13:18:30.862Z,1.73
2024-01-16T13:20:58.719Z,1.77
2024-01-16T13:23:26.308Z,1.75
2024-01-16T13:25:53.795Z,1.73
2024-01-16T13:28:24.625Z,1.55
2024-01-16T13:30:53.178Z,1.70
2024-01-16T13:33:20.135Z,1.65
2024-01-16T13:35:48.117Z,1.59
2024-01-16T13:38:18.513Z,1.60
2024-01-16T13:40:44.935Z,1.61
2024-01-16T13:43:12.688Z,1.58
2024-01-16T13:45:39.867Z,1.71
2024-01-16T13:48:07.359Z,1.69
2024-01-16T13:50:36.876Z,1.68
2024-01-16T13:53:03.752Z,1.46
2024-01-16T13:55:32.856Z,1.41
2024-01-16T13:57:59.409Z,1.31
2024-01-16T14:00:25.987Z,1.39
2024-01-16T14:02:52.847Z,1.40
2024-01-16T14:05:20.873Z,1.46
2024-01-16T14:07:51.500Z,1.42
2024-01-16T14:10:19.043Z,1.50
2024-01-16T14:12:46.759Z,1.41
2024-01-16T14:15:19.389Z,1.32
2024-01-16T14:18:04.519Z,1.40
2024-01-16T14:20:31.105Z,1.36
2024-01-16T14:22:58.731Z,1.46
2024-01-16T14:25:25.281Z,1.39
2024-01-16T14:28:05.159Z,1.45
2024-01-16T14:30:36.169Z,1.42
2024-01-16T14:33:03.013Z,1.37
2024-01-16T14:35:29.578Z,1.24
2024-01-16T14:37:56.413Z,1.20
2024-01-16T14:40:26.393Z,1.15
2024-01-16T14:42:54.447Z,1.15
2024-01-16T14:45:22.147Z,1.11
2024-01-16T14:47:50.333Z,1.17
2024-01-16T14:50:18.608Z,1.19
2024-01-16T14:52:52.798Z,1.14
2024-01-16T14:55:21.510Z,1.09
2024-01-16T14:57:52.992Z,1.15
2024-01-16T15:00:28.006Z,1.05
2024-01-16T15:02:55.131Z,1.01
2024-01-16T15:05:22.661Z,0.97
2024-01-16T15:07:50.299Z,0.95
2024-01-16T15:10:17.767Z,0.89
2024-01-16T15:12:45.808Z,0.86
2024-01-16T15:15:14.487Z,0.82
2024-01-16T15:17:42.356Z,0.78
2024-01-16T15:20:10.813Z,0.74
2024-01-16T15:22:42.766Z,0.76
2024-01-16T15:25:10.617Z,0.67
2024-01-16T15:27:37.516Z,0.63
2024-01-16T15:30:05.340Z,0.67
2024-01-16T15:32:33.024Z,0.65
2024-01-16T15:35:00.533Z,0.56
2024-01-16T15:37:28.284Z,0.42
2024-01-16T15:39:54.651Z,0.43
2024-01-16T15:42:20.971Z,0.40
2024-01-16T15:44:47.648Z,0.26
2024-01-16T15:47:14.213Z,0.31
2024-01-16T15:49:40.769Z,0.31
2024-01-16T15:52:07.730Z,0.28
2024-01-16T15:54:34.184Z,0.20
2024-01-16T15:57:00.791Z,0.21
2024-01-16T15:59:28.312Z,0.17
2024-01-16T16:01:54.750Z,0.13
2024-01-16T16:04:21.178Z,0.15
2024-01-16T16:06:47.806Z,0.16
2024-01-16T16:09:14.261Z,0.17
2024-01-16T16:11:42.841Z,0.05
2024-01-16T16:14:10.229Z,-0.02
2024-01-16T16:16:37.492Z,-0.04
2024-01-16T16:19:04.681Z,-0.12
2024-01-16T16:21:32.566Z,-0.13
2024-01-16T16:23:59.128Z,-0.06
2024-01-16T16:26:40.883Z,-0.19
2024-01-16T16:29:09.802Z,-0.23
2024-01-16T16:31:37.759Z,-0.29
2024-01-16T16:34:11.415Z,-0.29
2024-01-16T16:36:41.729Z,-0.29
2024-01-16T16:39:09.284Z,-0.26
2024-01-16T16:41:38.215Z,-0.31
2024-01-16T16:44:05.298Z,-0.39
2024-01-16T16:46:31.674Z,-0.40
2024-01-16T16:48:58.566Z,-0.40
2024-01-16T16:51:28.848Z,-0.41
2024-01-16T16:53:56.066Z,-0.54
2024-01-16T16:56:24.294Z,-0.53
2024-01-16T16:58:51.776Z,-0.54
2024-01-16T17:01:19.830Z,-0.57
2024-01-16T17:03:47.743Z,-0.65
2024-01-16T17:06:17.168Z,-0.71
2024-01-16T17:08:46.141Z,-0.77
2024-01-16T17:11:13.748Z,-0.78
2024-01-16T17:13:42.116Z,-0.79
2024-01-16T17:16:09.890Z,-0.80
2024-01-16T17:18:39.194Z,-0.85
2024-01-16T17:21:07.325Z,-0.78
2024-01-16T17:23:34.655Z,-0.87
2024-01-16T17:26:02.008Z,-0.98
2024-01-16T17:28:29.427Z,-0.93
2024-01-16T17:31:02.832Z,-1.04
2024-01-16T17:33:30.033Z,-1.03
2024-01-16T17:36:06.899Z,-1.13
2024-01-16T17:38:33.620Z,-1.10
2024-01-16T17:41:01.909Z,-1.14
2024-01-16T17:43:29.044Z,-1.10
2024-01-16T17:45:55.427Z,-1.11
2024-01-16T17:48:22.184Z,-1.10
2024-01-16T17:50:48.962Z,-1.13
2024-01-16T17:53:15.595Z,-1.19
2024-01-16T17:55:43.002Z,-1.19
2024-01-16T17:58:10.053Z,-1.20
2024-01-16T18:00:36.787Z,-1.23
2024-01-16T18:03:24.206Z,-1.29
2024-01-16T18:06:00.426Z,-1.35
2024-01-16T18:08:27.072Z,-1.37
2024-01-16T18:10:54.628Z,-1.34
2024-01-16T18:13:23.131Z,-1.43
2024-01-16T18:15:49.527Z,-1.39
2024-01-16T18:18:17.080Z,-1.39
2024-01-16T18:20:43.719Z,-1.43
2024-01-16T18:23:10.936Z,-1.42
2024-01-16T18:25:37.559Z,-1.46
2024-01-16T18:28:05.478Z,-1.45
2024-01-16T18:30:34.182Z,-1.50
2024-01-16T18:33:01.990Z,-1.54
2024-01-16T18:35:28.509Z,-1.55
2024-01-16T18:37:56.022Z,-1.63
2024-01-16T18:40:24.350Z,-1.67
2024-01-16T18:42:50.718Z,-1.64
2024-01-16T18:45:17.201Z,-1.66
2024-01-16T18:47:45.721Z,-1.70
2024-01-16T18:50:12.927Z,-1.81
2024-01-16T18:52:44.173Z,-1.83
2024-01-16T18:55:13.324Z,-1.98
2024-01-16T18:57:40.844Z,-2.01
2024-01-16T19:00:14.045Z,-2.06
2024-01-16T19:02:44.841Z,-1.95
2024-01-16T19:05:14.663Z,-2.03
2024-01-16T19:07:42.616Z,-2.13
2024-01-16T19:10:13.609Z,-2.26
2024-01-16T19:12:48.985Z,-2.29
2024-01-16T19:15:20.911Z,-2.36
2024-01-16T19:17:48.986Z,-2.49
2024-01-16T19:20:16.414Z,-2.51
2024-01-16T19:22:45.348Z,-2.48
2024-01-16T19:25:12.366Z,-2.61
2024-01-16T19:27:42.563Z,-2.76
2024-01-16T19:30:14.808Z,-2.87
2024-01-16T19:32:43.598Z,-2.85
2024-01-16T19:35:11.191Z,-2.91
2024-01-16T19:37:37.527Z,-3.04
2024-01-16T19:40:08.837Z,-2.90
2024-01-16T19:42:35.831Z,-2.89
2024-01-16T19:45:02.240Z,-2.95
2024-01-16T19:47:29.720Z,-2.92
2024-01-16T19:49:56.089Z,-2.91
2024-01-16T19:52:22.496Z,-2.88
2024-01-16T19:54:48.921Z,-2.88
2024-01-16T19:57:15.834Z,-2.86
2024-01-16T19:59:42.240Z,-2.87
2024-01-16T20:02:08.657Z,-2.84
2024-01-16T20:04:35.192Z,-2.87
2024-01-16T20:07:01.722Z,-2.98
2024-01-16T20:09:28.274Z,-2.88
2024-01-16T20:11:55.556Z,-2.93
2024-01-16T20:14:22.491Z,-2.88
2024-01-16T20:16:48.855Z,-2.97
2024-01-16T20:19:15.379Z,-3.05
2024-01-16T20:21:45.021Z,-3.05
2024-01-16T20:24:11.411Z,-3.05
2024-01-16T20:26:38.048Z,-3.15
2024-01-16T20:29:07.107Z,-3.18
2024-01-16T20:31:34.722Z,-3.08
2024-01-16T20:34:01.310Z,-3.31
2024-01-16T20:36:28.103Z,-3.45
2024-01-16T20:38:54.532Z,-3.46
2024-01-16T20:41:21.119Z,-3.43
2024-01-16T20:43:47.630Z,-3.50
2024-01-16T20:46:15.529Z,-3.63
2024-01-16T20:48:42.172Z,-3.78
2024-01-16T20:51:08.644Z,-3.79
2024-01-16T20:53:35.178Z,-4.05
2024-01-16T20:56:01.586Z,-4.06
2024-01-16T20:58:28.210Z,-4.14
2024-01-16T21:00:54.672Z,-4.17
2024-01-16T21:03:21.519Z,-4.19
2024-01-16T21:05:59.046Z,-4.18
2024-01-16T21:08:25.785Z,-4.27
2024-01-16T21:10:52.261Z,-4.38
2024-01-16T21:13:19.214Z,-4.36
2024-01-16T21:15:46.920Z,-4.41
2024-01-16T21:18:14.741Z,-4.40
2024-01-16T21:20:41.250Z,-4.49
2024-01-16T21:23:07.799Z,-4.54
2024-01-16T21:25:34.283Z,-4.45
2024-01-16T21:28:00.717Z,-4.45
2024-01-16T21:30:27.825Z,-4.48
2024-01-16T21:32:54.830Z,-4.48
2024-01-16T21:35:22.009Z,-4.45
2024-01-16T21:37:48.705Z,-4.48
2024-01-16T21:40:15.256Z,-4.44
2024-01-16T21:42:42.066Z,-4.51
2024-01-16T21:45:08.878Z,-4.51
2024-01-16T21:47:35.528Z,-4.52
2024-01-16T21:50:06.656Z,-4.50
2024-01-16T21:52:33.988Z,-4.58
2024-01-16T21:55:02.166Z,-4.68
2024-01-16T21:57:31.427Z,-4.70
2024-01-16T21:59:58.036Z,-4.90
2024-01-16T22:02:24.631Z,-4.82
2024-01-16T22:04:51.468Z,-4.88
2024-01-16T22:07:17.860Z,-4.91
2024-01-16T22:09:44.257Z,-4.96
2024-01-16T22:12:10.709Z,-5.03
2024-01-16T22:14:38.598Z,-5.06
2024-01-16T22:17:05.053Z,-5.09
2024-01-16T22:19:31.498Z,-5.04
2024-01-16T22:21:57.898Z,-5.21
2024-01-16T22:24:24.290Z,-5.20
2024-01-16T22:26:50.710Z,-5.20
2024-01-16T22:29:17.096Z,-5.28
2024-01-16T22:31:43.753Z,-5.23
2024-01-16T22:34:10.435Z,-5.20
2024-01-16T22:36:41.075Z,-5.19
2024-01-16T22:39:16.121Z,-5.17
2024-01-16T22:41:46.802Z,-5.24
2024-01-16T22:44:14.828Z,-5.23
2024-01-16T22:46:41.238Z,-5.18
2024-01-16T22:49:08.609Z,-5.26
2024-01-16T22:51:37.267Z,-5.16
2024-01-16T22:54:06.741Z,-5.21
2024-01-16T22:56:33.486Z,-5.26
2024-01-16T22:59:03.537Z,-5.23
2024-01-16T23:01:30.743Z,-5.16
2024-01-16T23:03:58.669Z,-5.11
2024-01-16T23:06:28.745Z,-5.16
2024-01-16T23:09:01.124Z,-5.17
2024-01-16T23:11:27.691Z,-5.15
2024-01-16T23:13:54.590Z,-5.09
2024-01-16T23:16:21.114Z,-5.08
2024-01-16T23:18:48.295Z,-5.08
2024-01-16T23:21:18.214Z,-5.09
2024-01-16T23:23:44.967Z,-5.11
2024-01-16T23:26:15.847Z,-5.07
2024-01-16T23:28:42.234Z,-5.05
2024-01-16T23:31:09.287Z,-5.02
2024-01-16T23:33:36.223Z,-5.03
2024-01-16T23:36:02.901Z,-5.05
2024-01-16T23:38:29.641Z,-4.99
2024-01-16T23:40:57.287Z,-5.00
2024-01-16T23:43:23.784Z,-4.94
2024-01-16T23:45:51.236Z,-4.92
2024-01-16T23:48:17.786Z,-4.87
2024-01-16T23:50:44.241Z,-4.83
2024-01-16T23:53:11.261Z,-4.80
2024-01-16T23:55:39.282Z,-4.78
2024-01-16T23:58:05.856Z,-4.83
